sensor_id;sensor_type;location;lat;lon;timestamp;P1;durP1;ratioP1;P2;durP2;ratioP2
19812;SDS011;10066;48.108;11.448;2022-07-23T00:00:10;6.40;;;4.97;;
19812;SDS011;10066;48.108;11.448;2022-07-23T00:02:39;5.00;;;4.50;;
19812;SDS011;10066;48.108;11.448;2022-07-23T00:05:08;5.70;;;4.80;;
19812;SDS011;10066;48.108;11.448;2022-07-23T00:07:37;6.33;;;4.80;;
19812;SDS011;10066;48.108;11.448;2022-07-23T00:10:04;5.57;;;5.00;;
19812;SDS011;10066;48.108;11.448;2022-07-23T00:12:32;5.57;;;5.07;;
19812;SDS011;10066;48.108;11.448;2022-07-23T00:14:59;5.27;;;4.50;;
19812;SDS011;10066;48.108;11.448;2022-07-23T00:17:27;4.77;;;4.33;;
19812;SDS011;10066;48.108;11.448;2022-07-23T00:19:54;6.10;;;4.90;;
19812;SDS011;10066;48.108;11.448;2022-07-23T00:22:22;6.60;;;5.03;;
19812;SDS011;10066;48.108;11.448;2022-07-23T00:24:50;5.33;;;4.83;;
19812;SDS011;10066;48.108;11.448;2022-07-23T00:27:17;5.00;;;4.50;;
19812;SDS011;10066;48.108;11.448;2022-07-23T00:29:44;5.60;;;4.63;;
19812;SDS011;10066;48.108;11.448;2022-07-23T00:32:11;5.50;;;5.00;;
19812;SDS011;10066;48.108;11.448;2022-07-23T00:34:38;5.20;;;4.70;;
19812;SDS011;10066;48.108;11.448;2022-07-23T00:37:06;6.13;;;4.73;;
19812;SDS011;10066;48.108;11.448;2022-07-23T00:39:35;5.13;;;4.70;;
19812;SDS011;10066;48.108;11.448;2022-07-23T00:42:02;5.30;;;4.80;;
19812;SDS011;10066;48.108;11.448;2022-07-23T00:44:29;5.40;;;4.23;;
19812;SDS011;10066;48.108;11.448;2022-07-23T00:46:57;5.30;;;4.77;;
19812;SDS011;10066;48.108;11.448;2022-07-23T00:49:25;4.93;;;4.47;;
19812;SDS011;10066;48.108;11.448;2022-07-23T00:51:54;4.90;;;4.40;;
19812;SDS011;10066;48.108;11.448;2022-07-23T00:54:22;5.47;;;4.90;;
19812;SDS011;10066;48.108;11.448;2022-07-23T00:56:52;5.50;;;4.73;;
19812;SDS011;10066;48.108;11.448;2022-07-23T00:59:20;4.70;;;4.30;;
19812;SDS011;10066;48.108;11.448;2022-07-23T01:01:47;5.73;;;4.40;;
19812;SDS011;10066;48.108;11.448;2022-07-23T01:04:14;5.20;;;4.40;;
19812;SDS011;10066;48.108;11.448;2022-07-23T01:06:41;8.67;;;4.77;;
19812;SDS011;10066;48.108;11.448;2022-07-23T01:09:10;5.13;;;4.20;;
19812;SDS011;10066;48.108;11.448;2022-07-23T01:11:37;5.07;;;4.57;;
19812;SDS011;10066;48.108;11.448;2022-07-23T01:14:09;5.20;;;4.70;;
19812;SDS011;10066;48.108;11.448;2022-07-23T01:16:37;5.23;;;4.73;;
19812;SDS011;10066;48.108;11.448;2022-07-23T01:19:04;5.13;;;4.40;;
19812;SDS011;10066;48.108;11.448;2022-07-23T01:21:32;5.10;;;4.60;;
19812;SDS011;10066;48.108;11.448;2022-07-23T01:24:04;6.53;;;5.50;;
19812;SDS011;10066;48.108;11.448;2022-07-23T01:26:32;6.10;;;5.50;;
19812;SDS011;10066;48.108;11.448;2022-07-23T01:29:00;8.97;;;5.87;;
19812;SDS011;10066;48.108;11.448;2022-07-23T01:31:27;9.43;;;5.60;;
19812;SDS011;10066;48.108;11.448;2022-07-23T01:33:54;17.30;;;5.73;;
19812;SDS011;10066;48.108;11.448;2022-07-23T01:36:22;14.63;;;5.20;;
19812;SDS011;10066;48.108;11.448;2022-07-23T01:38:49;18.67;;;5.47;;
19812;SDS011;10066;48.108;11.448;2022-07-23T01:41:18;11.20;;;4.83;;
19812;SDS011;10066;48.108;11.448;2022-07-23T01:43:45;3.63;;;2.93;;
19812;SDS011;10066;48.108;11.448;2022-07-23T01:46:12;5.57;;;2.77;;
19812;SDS011;10066;48.108;11.448;2022-07-23T01:48:40;6.50;;;2.27;;
19812;SDS011;10066;48.108;11.448;2022-07-23T01:51:07;2.40;;;2.20;;
19812;SDS011;10066;48.108;11.448;2022-07-23T01:53:34;3.83;;;2.33;;
19812;SDS011;10066;48.108;11.448;2022-07-23T01:56:01;3.97;;;2.90;;
19812;SDS011;10066;48.108;11.448;2022-07-23T01:58:31;6.60;;;2.87;;
19812;SDS011;10066;48.108;11.448;2022-07-23T02:00:58;4.33;;;3.07;;
19812;SDS011;10066;48.108;11.448;2022-07-23T02:03:26;7.53;;;2.90;;
19812;SDS011;10066;48.108;11.448;2022-07-23T02:05:53;3.30;;;3.00;;
19812;SDS011;10066;48.108;11.448;2022-07-23T02:08:20;4.00;;;2.80;;
19812;SDS011;10066;48.108;11.448;2022-07-23T02:10:47;3.60;;;2.43;;
19812;SDS011;10066;48.108;11.448;2022-07-23T02:13:16;4.00;;;2.80;;
19812;SDS011;10066;48.108;11.448;2022-07-23T02:15:44;4.37;;;2.80;;
19812;SDS011;10066;48.108;11.448;2022-07-23T02:18:12;5.27;;;3.63;;
19812;SDS011;10066;48.108;11.448;2022-07-23T02:20:38;5.33;;;3.17;;
19812;SDS011;10066;48.108;11.448;2022-07-23T02:23:06;3.93;;;3.50;;
19812;SDS011;10066;48.108;11.448;2022-07-23T02:25:33;2.80;;;2.30;;
19812;SDS011;10066;48.108;11.448;2022-07-23T02:28:00;3.47;;;2.63;;
19812;SDS011;10066;48.108;11.448;2022-07-23T02:30:27;2.03;;;1.80;;
19812;SDS011;10066;48.108;11.448;2022-07-23T02:32:55;2.90;;;2.60;;
19812;SDS011;10066;48.108;11.448;2022-07-23T02:35:22;2.53;;;1.83;;
19812;SDS011;10066;48.108;11.448;2022-07-23T02:37:49;4.77;;;2.30;;
19812;SDS011;10066;48.108;11.448;2022-07-23T02:40:16;1.77;;;1.27;;
19812;SDS011;10066;48.108;11.448;2022-07-23T02:42:43;3.67;;;1.57;;
19812;SDS011;10066;48.108;11.448;2022-07-23T02:45:11;4.00;;;2.50;;
19812;SDS011;10066;48.108;11.448;2022-07-23T02:47:38;5.20;;;2.20;;
19812;SDS011;10066;48.108;11.448;2022-07-23T02:50:07;2.20;;;2.00;;
19812;SDS011;10066;48.108;11.448;2022-07-23T02:52:37;3.57;;;2.10;;
19812;SDS011;10066;48.108;11.448;2022-07-23T02:55:04;2.30;;;1.87;;
19812;SDS011;10066;48.108;11.448;2022-07-23T02:57:32;4.93;;;2.30;;
19812;SDS011;10066;48.108;11.448;2022-07-23T02:59:59;2.70;;;2.50;;
19812;SDS011;10066;48.108;11.448;2022-07-23T03:02:26;3.23;;;2.47;;
19812;SDS011;10066;48.108;11.448;2022-07-23T03:04:53;10.30;;;2.90;;
19812;SDS011;10066;48.108;11.448;2022-07-23T03:07:21;5.10;;;3.50;;
19812;SDS011;10066;48.108;11.448;2022-07-23T03:09:48;4.20;;;3.27;;
19812;SDS011;10066;48.108;11.448;2022-07-23T03:12:15;3.57;;;2.50;;
19812;SDS011;10066;48.108;11.448;2022-07-23T03:14:41;3.57;;;3.00;;
19812;SDS011;10066;48.108;11.448;2022-07-23T03:17:09;3.93;;;3.13;;
19812;SDS011;10066;48.108;11.448;2022-07-23T03:19:36;6.27;;;3.50;;
19812;SDS011;10066;48.108;11.448;2022-07-23T03:22:03;4.37;;;3.57;;
19812;SDS011;10066;48.108;11.448;2022-07-23T03:24:34;5.30;;;3.87;;
19812;SDS011;10066;48.108;11.448;2022-07-23T03:27:18;4.87;;;3.70;;
19812;SDS011;10066;48.108;11.448;2022-07-23T03:29:46;5.90;;;3.70;;
19812;SDS011;10066;48.108;11.448;2022-07-23T03:32:13;6.17;;;4.10;;
19812;SDS011;10066;48.108;11.448;2022-07-23T03:34:40;6.43;;;3.70;;
19812;SDS011;10066;48.108;11.448;2022-07-23T03:37:07;5.67;;;4.20;;
19812;SDS011;10066;48.108;11.448;2022-07-23T03:39:35;4.77;;;4.17;;
19812;SDS011;10066;48.108;11.448;2022-07-23T03:42:03;4.03;;;3.70;;
19812;SDS011;10066;48.108;11.448;2022-07-23T03:44:30;4.77;;;3.90;;
19812;SDS011;10066;48.108;11.448;2022-07-23T03:46:57;4.93;;;4.33;;
19812;SDS011;10066;48.108;11.448;2022-07-23T03:49:25;4.90;;;4.40;;
19812;SDS011;10066;48.108;11.448;2022-07-23T03:51:52;8.37;;;4.20;;
19812;SDS011;10066;48.108;11.448;2022-07-23T03:54:19;5.37;;;4.17;;
19812;SDS011;10066;48.108;11.448;2022-07-23T03:56:47;4.70;;;3.90;;
19812;SDS011;10066;48.108;11.448;2022-07-23T03:59:14;4.73;;;3.63;;
19812;SDS011;10066;48.108;11.448;2022-07-23T04:01:41;4.47;;;4.07;;
19812;SDS011;10066;48.108;11.448;2022-07-23T04:04:08;6.40;;;4.47;;
19812;SDS011;10066;48.108;11.448;2022-07-23T04:06:36;5.30;;;4.50;;
19812;SDS011;10066;48.108;11.448;2022-07-23T04:09:03;4.53;;;4.13;;
19812;SDS011;10066;48.108;11.448;2022-07-23T04:11:30;6.67;;;4.60;;
19812;SDS011;10066;48.108;11.448;2022-07-23T04:13:59;5.30;;;4.63;;
19812;SDS011;10066;48.108;11.448;2022-07-23T04:16:26;5.53;;;4.67;;
19812;SDS011;10066;48.108;11.448;2022-07-23T04:18:53;5.97;;;4.53;;
19812;SDS011;10066;48.108;11.448;2022-07-23T04:21:20;6.73;;;4.43;;
19812;SDS011;10066;48.108;11.448;2022-07-23T04:23:47;5.23;;;4.30;;
19812;SDS011;10066;48.108;11.448;2022-07-23T04:26:14;5.03;;;4.20;;
19812;SDS011;10066;48.108;11.448;2022-07-23T04:28:42;6.07;;;4.50;;
19812;SDS011;10066;48.108;11.448;2022-07-23T04:31:10;4.60;;;4.20;;
19812;SDS011;10066;48.108;11.448;2022-07-23T04:33:37;5.07;;;4.40;;
19812;SDS011;10066;48.108;11.448;2022-07-23T04:36:04;5.87;;;4.70;;
19812;SDS011;10066;48.108;11.448;2022-07-23T04:38:31;5.10;;;4.60;;
19812;SDS011;10066;48.108;11.448;2022-07-23T04:40:58;6.03;;;4.37;;
19812;SDS011;10066;48.108;11.448;2022-07-23T04:43:26;5.13;;;4.63;;
19812;SDS011;10066;48.108;11.448;2022-07-23T04:45:53;6.53;;;5.30;;
19812;SDS011;10066;48.108;11.448;2022-07-23T04:48:21;5.60;;;5.10;;
19812;SDS011;10066;48.108;11.448;2022-07-23T04:50:49;6.00;;;4.80;;
19812;SDS011;10066;48.108;11.448;2022-07-23T04:53:16;5.70;;;4.87;;
19812;SDS011;10066;48.108;11.448;2022-07-23T04:55:43;5.33;;;4.90;;
19812;SDS011;10066;48.108;11.448;2022-07-23T04:58:10;5.30;;;4.67;;
19812;SDS011;10066;48.108;11.448;2022-07-23T05:00:37;5.30;;;4.47;;
19812;SDS011;10066;48.108;11.448;2022-07-23T05:03:04;8.10;;;4.70;;
19812;SDS011;10066;48.108;11.448;2022-07-23T05:05:32;6.07;;;4.63;;
19812;SDS011;10066;48.108;11.448;2022-07-23T05:07:59;5.17;;;4.60;;
19812;SDS011;10066;48.108;11.448;2022-07-23T05:10:26;5.63;;;5.07;;
19812;SDS011;10066;48.108;11.448;2022-07-23T05:12:53;5.77;;;4.73;;
19812;SDS011;10066;48.108;11.448;2022-07-23T05:15:20;5.00;;;4.50;;
19812;SDS011;10066;48.108;11.448;2022-07-23T05:17:47;5.87;;;4.63;;
19812;SDS011;10066;48.108;11.448;2022-07-23T05:20:14;5.47;;;4.63;;
19812;SDS011;10066;48.108;11.448;2022-07-23T05:22:42;5.67;;;4.70;;
19812;SDS011;10066;48.108;11.448;2022-07-23T05:25:09;5.27;;;4.70;;
19812;SDS011;10066;48.108;11.448;2022-07-23T05:27:36;5.30;;;4.80;;
19812;SDS011;10066;48.108;11.448;2022-07-23T05:30:04;6.23;;;4.87;;
19812;SDS011;10066;48.108;11.448;2022-07-23T05:32:31;5.50;;;4.83;;
19812;SDS011;10066;48.108;11.448;2022-07-23T05:34:59;6.47;;;4.90;;
19812;SDS011;10066;48.108;11.448;2022-07-23T05:37:26;5.73;;;4.93;;
19812;SDS011;10066;48.108;11.448;2022-07-23T05:39:55;5.20;;;4.70;;
19812;SDS011;10066;48.108;11.448;2022-07-23T05:42:22;5.93;;;5.07;;
19812;SDS011;10066;48.108;11.448;2022-07-23T05:44:49;5.50;;;4.57;;
19812;SDS011;10066;48.108;11.448;2022-07-23T05:47:16;5.57;;;5.00;;
19812;SDS011;10066;48.108;11.448;2022-07-23T05:49:43;5.30;;;4.70;;
19812;SDS011;10066;48.108;11.448;2022-07-23T05:52:10;5.80;;;5.20;;
19812;SDS011;10066;48.108;11.448;2022-07-23T05:54:37;5.97;;;4.97;;
19812;SDS011;10066;48.108;11.448;2022-07-23T05:57:06;6.23;;;5.10;;
19812;SDS011;10066;48.108;11.448;2022-07-23T05:59:33;5.40;;;4.90;;
19812;SDS011;10066;48.108;11.448;2022-07-23T06:02:00;5.57;;;4.97;;
19812;SDS011;10066;48.108;11.448;2022-07-23T06:04:27;5.13;;;4.63;;
19812;SDS011;10066;48.108;11.448;2022-07-23T06:06:54;8.50;;;5.27;;
19812;SDS011;10066;48.108;11.448;2022-07-23T06:09:21;6.07;;;5.00;;
19812;SDS011;10066;48.108;11.448;2022-07-23T06:11:48;5.30;;;4.80;;
19812;SDS011;10066;48.108;11.448;2022-07-23T06:14:16;5.70;;;4.97;;
19812;SDS011;10066;48.108;11.448;2022-07-23T06:16:43;7.90;;;5.53;;
19812;SDS011;10066;48.108;11.448;2022-07-23T06:19:11;7.50;;;5.73;;
19812;SDS011;10066;48.108;11.448;2022-07-23T06:21:38;8.37;;;5.57;;
19812;SDS011;10066;48.108;11.448;2022-07-23T06:24:05;5.77;;;5.17;;
19812;SDS011;10066;48.108;11.448;2022-07-23T06:26:32;6.47;;;5.80;;
19812;SDS011;10066;48.108;11.448;2022-07-23T06:29:01;7.97;;;5.43;;
19812;SDS011;10066;48.108;11.448;2022-07-23T06:31:30;6.93;;;5.40;;
19812;SDS011;10066;48.108;11.448;2022-07-23T06:33:57;6.00;;;5.40;;
19812;SDS011;10066;48.108;11.448;2022-07-23T06:36:24;6.63;;;5.60;;
19812;SDS011;10066;48.108;11.448;2022-07-23T06:38:51;8.30;;;5.80;;
19812;SDS011;10066;48.108;11.448;2022-07-23T06:41:18;6.60;;;5.90;;
19812;SDS011;10066;48.108;11.448;2022-07-23T06:43:45;6.50;;;5.90;;
19812;SDS011;10066;48.108;11.448;2022-07-23T06:46:12;8.83;;;5.57;;
19812;SDS011;10066;48.108;11.448;2022-07-23T06:48:40;6.87;;;5.57;;
19812;SDS011;10066;48.108;11.448;2022-07-23T06:51:07;7.30;;;5.70;;
19812;SDS011;10066;48.108;11.448;2022-07-23T06:53:34;6.33;;;5.63;;
19812;SDS011;10066;48.108;11.448;2022-07-23T06:56:02;10.07;;;5.60;;
19812;SDS011;10066;48.108;11.448;2022-07-23T06:58:29;6.83;;;5.90;;
19812;SDS011;10066;48.108;11.448;2022-07-23T07:00:56;7.30;;;5.57;;
19812;SDS011;10066;48.108;11.448;2022-07-23T07:03:23;6.43;;;5.80;;
19812;SDS011;10066;48.108;11.448;2022-07-23T07:05:51;6.57;;;5.87;;
19812;SDS011;10066;48.108;11.448;2022-07-23T07:08:18;6.80;;;5.67;;
19812;SDS011;10066;48.108;11.448;2022-07-23T07:10:45;6.73;;;5.30;;
19812;SDS011;10066;48.108;11.448;2022-07-23T07:13:12;6.27;;;5.67;;
19812;SDS011;10066;48.108;11.448;2022-07-23T07:15:39;5.70;;;4.90;;
19812;SDS011;10066;48.108;11.448;2022-07-23T07:18:07;5.93;;;5.30;;
19812;SDS011;10066;48.108;11.448;2022-07-23T07:20:34;8.17;;;5.53;;
19812;SDS011;10066;48.108;11.448;2022-07-23T07:23:02;7.13;;;5.03;;
19812;SDS011;10066;48.108;11.448;2022-07-23T07:25:29;5.90;;;5.10;;
19812;SDS011;10066;48.108;11.448;2022-07-23T07:27:56;5.80;;;5.30;;
19812;SDS011;10066;48.108;11.448;2022-07-23T07:30:23;6.03;;;5.43;;
19812;SDS011;10066;48.108;11.448;2022-07-23T07:32:50;7.87;;;5.47;;
19812;SDS011;10066;48.108;11.448;2022-07-23T07:35:17;5.60;;;5.03;;
19812;SDS011;10066;48.108;11.448;2022-07-23T07:37:44;5.30;;;4.80;;
19812;SDS011;10066;48.108;11.448;2022-07-23T07:40:12;5.67;;;5.03;;
19812;SDS011;10066;48.108;11.448;2022-07-23T07:42:45;5.40;;;4.90;;
19812;SDS011;10066;48.108;11.448;2022-07-23T07:45:12;6.27;;;5.17;;
19812;SDS011;10066;48.108;11.448;2022-07-23T07:47:40;5.40;;;4.90;;
19812;SDS011;10066;48.108;11.448;2022-07-23T07:50:07;6.00;;;5.50;;
19812;SDS011;10066;48.108;11.448;2022-07-23T07:52:34;7.60;;;5.07;;
19812;SDS011;10066;48.108;11.448;2022-07-23T07:55:02;6.30;;;5.70;;
19812;SDS011;10066;48.108;11.448;2022-07-23T07:57:32;6.00;;;5.33;;
19812;SDS011;10066;48.108;11.448;2022-07-23T07:59:59;5.70;;;4.83;;
19812;SDS011;10066;48.108;11.448;2022-07-23T08:02:26;5.40;;;4.90;;
19812;SDS011;10066;48.108;11.448;2022-07-23T08:04:55;7.67;;;5.30;;
19812;SDS011;10066;48.108;11.448;2022-07-23T08:07:22;6.07;;;5.43;;
19812;SDS011;10066;48.108;11.448;2022-07-23T08:09:50;5.83;;;5.33;;
19812;SDS011;10066;48.108;11.448;2022-07-23T08:12:16;6.33;;;5.27;;
19812;SDS011;10066;48.108;11.448;2022-07-23T08:14:45;5.77;;;5.27;;
19812;SDS011;10066;48.108;11.448;2022-07-23T08:17:12;5.60;;;5.03;;
19812;SDS011;10066;48.108;11.448;2022-07-23T08:19:39;6.10;;;5.10;;
19812;SDS011;10066;48.108;11.448;2022-07-23T08:22:06;5.77;;;5.23;;
19812;SDS011;10066;48.108;11.448;2022-07-23T08:24:33;6.83;;;5.07;;
19812;SDS011;10066;48.108;11.448;2022-07-23T08:27:00;5.63;;;5.03;;
19812;SDS011;10066;48.108;11.448;2022-07-23T08:29:28;6.10;;;5.50;;
19812;SDS011;10066;48.108;11.448;2022-07-23T08:31:57;5.73;;;5.13;;
19812;SDS011;10066;48.108;11.448;2022-07-23T08:34:24;5.27;;;4.60;;
19812;SDS011;10066;48.108;11.448;2022-07-23T08:36:51;6.23;;;4.90;;
19812;SDS011;10066;48.108;11.448;2022-07-23T08:39:18;5.43;;;4.93;;
19812;SDS011;10066;48.108;11.448;2022-07-23T08:41:45;5.20;;;4.70;;
19812;SDS011;10066;48.108;11.448;2022-07-23T08:44:13;6.13;;;5.00;;
19812;SDS011;10066;48.108;11.448;2022-07-23T08:46:42;6.20;;;4.73;;
19812;SDS011;10066;48.108;11.448;2022-07-23T08:49:12;5.37;;;4.83;;
19812;SDS011;10066;48.108;11.448;2022-07-23T08:51:39;5.47;;;4.97;;
19812;SDS011;10066;48.108;11.448;2022-07-23T08:54:07;5.77;;;5.10;;
19812;SDS011;10066;48.108;11.448;2022-07-23T08:56:35;5.63;;;4.70;;
19812;SDS011;10066;48.108;11.448;2022-07-23T08:59:02;7.13;;;4.77;;
19812;SDS011;10066;48.108;11.448;2022-07-23T09:01:29;6.43;;;4.57;;
19812;SDS011;10066;48.108;11.448;2022-07-23T09:03:56;5.30;;;4.80;;
19812;SDS011;10066;48.108;11.448;2022-07-23T09:06:24;5.43;;;4.80;;
19812;SDS011;10066;48.108;11.448;2022-07-23T09:08:51;4.77;;;4.37;;
19812;SDS011;10066;48.108;11.448;2022-07-23T09:11:18;5.37;;;4.60;;
19812;SDS011;10066;48.108;11.448;2022-07-23T09:13:46;5.80;;;4.93;;
19812;SDS011;10066;48.108;11.448;2022-07-23T09:16:19;5.53;;;4.67;;
19812;SDS011;10066;48.108;11.448;2022-07-23T09:18:50;6.57;;;4.77;;
19812;SDS011;10066;48.108;11.448;2022-07-23T09:21:20;5.87;;;4.50;;
19812;SDS011;10066;48.108;11.448;2022-07-23T09:23:52;5.40;;;4.80;;
19812;SDS011;10066;48.108;11.448;2022-07-23T09:26:26;5.00;;;4.60;;
19812;SDS011;10066;48.108;11.448;2022-07-23T09:28:57;4.53;;;4.13;;
19812;SDS011;10066;48.108;11.448;2022-07-23T09:31:30;4.73;;;4.33;;
19812;SDS011;10066;48.108;11.448;2022-07-23T09:34:06;5.67;;;4.40;;
19812;SDS011;10066;48.108;11.448;2022-07-23T09:36:34;4.90;;;4.30;;
19812;SDS011;10066;48.108;11.448;2022-07-23T09:39:03;5.10;;;4.30;;
19812;SDS011;10066;48.108;11.448;2022-07-23T09:41:33;5.90;;;4.60;;
19812;SDS011;10066;48.108;11.448;2022-07-23T09:44:09;6.10;;;4.80;;
19812;SDS011;10066;48.108;11.448;2022-07-23T09:46:38;5.10;;;4.53;;
19812;SDS011;10066;48.108;11.448;2022-07-23T09:49:10;4.57;;;4.17;;
19812;SDS011;10066;48.108;11.448;2022-07-23T09:51:45;4.60;;;4.20;;
19812;SDS011;10066;48.108;11.448;2022-07-23T09:57:04;4.47;;;4.07;;
19812;SDS011;10066;48.108;11.448;2022-07-23T09:59:34;4.77;;;3.90;;
19812;SDS011;10066;48.108;11.448;2022-07-23T10:02:04;4.87;;;4.47;;
19812;SDS011;10066;48.108;11.448;2022-07-23T10:04:32;4.13;;;3.70;;
19812;SDS011;10066;48.108;11.448;2022-07-23T10:07:01;4.53;;;4.13;;
19812;SDS011;10066;48.108;11.448;2022-07-23T10:09:29;6.37;;;4.10;;
19812;SDS011;10066;48.108;11.448;2022-07-23T10:11:59;4.60;;;3.93;;
19812;SDS011;10066;48.108;11.448;2022-07-23T10:14:31;4.60;;;4.00;;
19812;SDS011;10066;48.108;11.448;2022-07-23T10:17:00;5.25;;;4.05;;
19812;SDS011;10066;48.108;11.448;2022-07-23T10:19:27;3.72;;;3.42;;
19812;SDS011;10066;48.108;11.448;2022-07-23T10:21:56;3.90;;;3.47;;
19812;SDS011;10066;48.108;11.448;2022-07-23T10:24:28;3.70;;;3.28;;
19812;SDS011;10066;48.108;11.448;2022-07-23T10:27:12;4.45;;;3.75;;
19812;SDS011;10066;48.108;11.448;2022-07-23T10:29:58;6.18;;;3.85;;
19812;SDS011;10066;48.108;11.448;2022-07-23T10:32:34;6.13;;;4.20;;
19812;SDS011;10066;48.108;11.448;2022-07-23T10:35:13;7.03;;;4.07;;
19812;SDS011;10066;48.108;11.448;2022-07-23T10:37:49;5.60;;;3.75;;
19812;SDS011;10066;48.108;11.448;2022-07-23T10:40:21;6.07;;;4.18;;
19812;SDS011;10066;48.108;11.448;2022-07-23T10:42:51;4.63;;;3.80;;
19812;SDS011;10066;48.108;11.448;2022-07-23T10:45:25;4.85;;;3.60;;
19812;SDS011;10066;48.108;11.448;2022-07-23T10:47:53;5.63;;;3.95;;
19812;SDS011;10066;48.108;11.448;2022-07-23T10:50:22;4.63;;;3.88;;
19812;SDS011;10066;48.108;11.448;2022-07-23T10:53:08;4.50;;;3.75;;
19812;SDS011;10066;48.108;11.448;2022-07-23T10:55:50;4.30;;;3.90;;
19812;SDS011;10066;48.108;11.448;2022-07-23T10:58:20;6.90;;;3.40;;
19812;SDS011;10066;48.108;11.448;2022-07-23T11:00:49;4.00;;;3.60;;
19812;SDS011;10066;48.108;11.448;2022-07-23T11:06:05;5.63;;;3.42;;
19812;SDS011;10066;48.108;11.448;2022-07-23T11:08:33;5.57;;;3.63;;
19812;SDS011;10066;48.108;11.448;2022-07-23T11:11:10;5.60;;;3.63;;
19812;SDS011;10066;48.108;11.448;2022-07-23T11:13:40;4.25;;;3.50;;
19812;SDS011;10066;48.108;11.448;2022-07-23T11:16:13;4.35;;;3.30;;
19812;SDS011;10066;48.108;11.448;2022-07-23T11:21:51;5.18;;;3.40;;
19812;SDS011;10066;48.108;11.448;2022-07-23T11:24:19;5.18;;;3.88;;
19812;SDS011;10066;48.108;11.448;2022-07-23T11:26:53;5.60;;;3.50;;
19812;SDS011;10066;48.108;11.448;2022-07-23T11:29:45;4.30;;;3.70;;
19812;SDS011;10066;48.108;11.448;2022-07-23T11:35:18;4.47;;;3.75;;
19812;SDS011;10066;48.108;11.448;2022-07-23T11:37:48;7.22;;;4.60;;
19812;SDS011;10066;48.108;11.448;2022-07-23T11:40:19;4.80;;;4.10;;
19812;SDS011;10066;48.108;11.448;2022-07-23T11:42:54;8.77;;;4.10;;
19812;SDS011;10066;48.108;11.448;2022-07-23T11:45:25;6.75;;;3.83;;
19812;SDS011;10066;48.108;11.448;2022-07-23T11:47:56;8.15;;;4.32;;
19812;SDS011;10066;48.108;11.448;2022-07-23T11:50:24;4.15;;;3.72;;
19812;SDS011;10066;48.108;11.448;2022-07-23T11:52:51;5.70;;;3.65;;
19812;SDS011;10066;48.108;11.448;2022-07-23T11:55:19;5.72;;;4.10;;
19812;SDS011;10066;48.108;11.448;2022-07-23T11:57:47;6.95;;;5.03;;
19812;SDS011;10066;48.108;11.448;2022-07-23T12:00:19;5.22;;;3.95;;
19812;SDS011;10066;48.108;11.448;2022-07-23T12:02:49;5.65;;;4.20;;
19812;SDS011;10066;48.108;11.448;2022-07-23T12:05:18;4.88;;;4.30;;
19812;SDS011;10066;48.108;11.448;2022-07-23T12:07:46;4.53;;;4.10;;
19812;SDS011;10066;48.108;11.448;2022-07-23T12:10:16;4.80;;;4.07;;
19812;SDS011;10066;48.108;11.448;2022-07-23T12:12:45;6.43;;;4.57;;
19812;SDS011;10066;48.108;11.448;2022-07-23T12:15:15;7.37;;;4.50;;
19812;SDS011;10066;48.108;11.448;2022-07-23T12:17:44;5.00;;;3.97;;
19812;SDS011;10066;48.108;11.448;2022-07-23T12:20:13;4.63;;;4.03;;
19812;SDS011;10066;48.108;11.448;2022-07-23T12:22:43;5.35;;;4.15;;
19812;SDS011;10066;48.108;11.448;2022-07-23T12:25:12;6.77;;;4.27;;
19812;SDS011;10066;48.108;11.448;2022-07-23T12:27:40;7.37;;;4.30;;
19812;SDS011;10066;48.108;11.448;2022-07-23T12:30:18;7.30;;;4.53;;
19812;SDS011;10066;48.108;11.448;2022-07-23T12:32:50;5.40;;;4.30;;
19812;SDS011;10066;48.108;11.448;2022-07-23T12:35:20;4.57;;;4.17;;
19812;SDS011;10066;48.108;11.448;2022-07-23T12:37:49;4.23;;;3.83;;
19812;SDS011;10066;48.108;11.448;2022-07-23T12:40:21;4.75;;;4.22;;
19812;SDS011;10066;48.108;11.448;2022-07-23T12:42:50;5.80;;;4.17;;
19812;SDS011;10066;48.108;11.448;2022-07-23T12:45:18;5.53;;;5.03;;
19812;SDS011;10066;48.108;11.448;2022-07-23T12:47:54;7.23;;;4.50;;
19812;SDS011;10066;48.108;11.448;2022-07-23T12:50:54;5.10;;;4.60;;
19812;SDS011;10066;48.108;11.448;2022-07-23T12:53:24;5.53;;;4.30;;
19812;SDS011;10066;48.108;11.448;2022-07-23T12:56:03;4.97;;;4.47;;
19812;SDS011;10066;48.108;11.448;2022-07-23T12:58:39;4.43;;;4.03;;
19812;SDS011;10066;48.108;11.448;2022-07-23T13:01:08;5.57;;;4.53;;
19812;SDS011;10066;48.108;11.448;2022-07-23T13:03:37;6.03;;;4.60;;
19812;SDS011;10066;48.108;11.448;2022-07-23T13:06:07;5.13;;;4.40;;
19812;SDS011;10066;48.108;11.448;2022-07-23T13:08:36;5.80;;;4.40;;
19812;SDS011;10066;48.108;11.448;2022-07-23T13:11:06;4.97;;;4.20;;
19812;SDS011;10066;48.108;11.448;2022-07-23T13:13:34;5.00;;;4.30;;
19812;SDS011;10066;48.108;11.448;2022-07-23T13:16:01;6.10;;;4.47;;
19812;SDS011;10066;48.108;11.448;2022-07-23T13:18:29;7.07;;;3.97;;
19812;SDS011;10066;48.108;11.448;2022-07-23T13:20:57;4.80;;;4.23;;
19812;SDS011;10066;48.108;11.448;2022-07-23T13:23:26;6.63;;;4.63;;
19812;SDS011;10066;48.108;11.448;2022-07-23T13:25:53;5.17;;;4.33;;
19812;SDS011;10066;48.108;11.448;2022-07-23T13:28:21;4.43;;;4.00;;
19812;SDS011;10066;48.108;11.448;2022-07-23T13:30:49;5.63;;;4.67;;
19812;SDS011;10066;48.108;11.448;2022-07-23T13:33:18;7.03;;;4.40;;
19812;SDS011;10066;48.108;11.448;2022-07-23T13:35:46;5.17;;;4.53;;
19812;SDS011;10066;48.108;11.448;2022-07-23T13:38:14;4.80;;;4.30;;
19812;SDS011;10066;48.108;11.448;2022-07-23T13:40:43;5.20;;;4.70;;
19812;SDS011;10066;48.108;11.448;2022-07-23T13:43:12;4.90;;;4.50;;
19812;SDS011;10066;48.108;11.448;2022-07-23T13:45:41;5.97;;;4.60;;
19812;SDS011;10066;48.108;11.448;2022-07-23T13:48:09;4.90;;;4.50;;
19812;SDS011;10066;48.108;11.448;2022-07-23T13:50:37;6.47;;;4.70;;
19812;SDS011;10066;48.108;11.448;2022-07-23T13:53:06;7.40;;;4.93;;
19812;SDS011;10066;48.108;11.448;2022-07-23T13:55:34;7.87;;;4.80;;
19812;SDS011;10066;48.108;11.448;2022-07-23T13:58:04;6.35;;;4.60;;
19812;SDS011;10066;48.108;11.448;2022-07-23T14:00:32;7.63;;;4.50;;
19812;SDS011;10066;48.108;11.448;2022-07-23T14:03:01;7.10;;;4.90;;
19812;SDS011;10066;48.108;11.448;2022-07-23T14:05:28;6.90;;;4.40;;
19812;SDS011;10066;48.108;11.448;2022-07-23T14:07:55;9.55;;;4.85;;
19812;SDS011;10066;48.108;11.448;2022-07-23T14:10:23;5.23;;;4.50;;
19812;SDS011;10066;48.108;11.448;2022-07-23T14:12:52;4.50;;;4.10;;
19812;SDS011;10066;48.108;11.448;2022-07-23T14:15:24;5.45;;;4.30;;
19812;SDS011;10066;48.108;11.448;2022-07-23T14:17:53;7.43;;;4.50;;
19812;SDS011;10066;48.108;11.448;2022-07-23T14:20:20;4.60;;;4.10;;
19812;SDS011;10066;48.108;11.448;2022-07-23T14:22:47;6.70;;;4.80;;
19812;SDS011;10066;48.108;11.448;2022-07-23T14:25:15;6.73;;;4.47;;
19812;SDS011;10066;48.108;11.448;2022-07-23T14:27:43;6.17;;;4.77;;
19812;SDS011;10066;48.108;11.448;2022-07-23T14:30:11;5.60;;;4.93;;
19812;SDS011;10066;48.108;11.448;2022-07-23T14:32:41;5.57;;;4.50;;
19812;SDS011;10066;48.108;11.448;2022-07-23T14:35:08;6.03;;;4.53;;
19812;SDS011;10066;48.108;11.448;2022-07-23T14:37:35;5.20;;;4.70;;
19812;SDS011;10066;48.108;11.448;2022-07-23T14:40:02;6.67;;;4.73;;
19812;SDS011;10066;48.108;11.448;2022-07-23T14:42:30;5.33;;;4.33;;
19812;SDS011;10066;48.108;11.448;2022-07-23T14:44:57;5.13;;;4.63;;
19812;SDS011;10066;48.108;11.448;2022-07-23T14:47:24;5.17;;;4.63;;
19812;SDS011;10066;48.108;11.448;2022-07-23T14:49:53;4.80;;;4.27;;
19812;SDS011;10066;48.108;11.448;2022-07-23T14:52:20;5.23;;;4.57;;